Tomah, WI (54660)

10:53 AM CDT on July 28, 2016 (GMT -0500)
Downtown Warrens | | Change Station

Elev 1020 ft 44.13 °N, 90.50 °W | Updated 16 seconds ago

Overcast
Overcast
66.2 °F
Feels Like 66.2 °F
N
3.4
Wind Variable Wind from ESE
Gusts 4.9 mph

Today
High -- | Low -- °F
--% Chance of Precip.
Yesterday
High -- | Low -- °F
Precip. -- in
Pressure 29.95 in
Visibility 7.0 miles
Clouds Overcast 900 ft
Dew Point 65 °F
Humidity 97%
Rainfall 0.30 in
Snow Depth Not available.
5:46 AM 8:29 PM
Waning Crescent, 31% visible
SPECI KVOK 281546Z 08008KT 7SM OVC009 19/18 A2995 RMK AO2A
Pressure 29.95 in
Visibility 7.0 miles
Clouds Overcast 900 ft
Dew Point 65 °F
Humidity 97%
Rainfall 0.30 in
Snow Depth Not available.
5:46 AM 8:29 PM
Waning Crescent, 31% visible
SPECI KVOK 281546Z 08008KT 7SM OVC009 19/18 A2995 RMK AO2A

10-Day Weather Forecast

Almanac

Astronomy

Jul. 28, 2016 Rise Set
Actual Time
Civil Twilight
Nautical Twilight
Astronomical Twilight
Moon
Length of Visible Light
Length of Day
Tomorrow will be .
, % of the Moon is Illuminated

Today's Extremes

State Highs State Lows

Community

WunderPhotos

Upload Photos

1,928,140 photos uploaded!

WunderBlog® & News

Nearby

Air Quality

  Air Quality AQ Index Pollutant
Not available.

Snow Depth

Station Depth Elevation

Earthquake Activity

City Distance Mag. Time & Date
Minimum magnitude displayed is 2.5.

Coastal Water Temperatures

Place Temperature

Stations

Nearby Weather Stations

Station Location Temp. Windchill Dew Point Humidity Wind Precip. Elev Updated Type
                   

Watches & Warnings

There are currently no watches in effect.